Star Fortune — HOCT — position and weather

sailwx.info

Track history (hours):
 
Tides and Currents Weather Stations Pressure Air Temp Water Temp Dewpoint Dewpoint Depression Visibility Wind Speed Wind Dir Waves Ship Positions

Star Fortune

Last reported at 2018-Jul-23 07:54 UTC. Time now 2018-Jul-23 11:54 UTC.
Position N 09°13' W 079°56'.

Length 289 m; draft 7.7 m.

Type: Cargo ship. MMSI: 353223000.

Date/timePositionNaut miles runAvg speedWind from/ knotsBaromVisibWave heightAir tempDewpointWater temp
2018-Jul-23 07:54N 09°13' W 079°56'0 0.0
2018-Jul-23 06:33N 09°13' W 079°56'0 0.0
2018-Jul-23 06:21N 09°13' W 079°56'0 0.0
2018-Jul-23 04:51N 09°13' W 079°56'1 2.0
2018-Jul-23 04:30N 09°14' W 079°56'2 3.5
2018-Jul-23 04:00N 09°16' W 079°55'1 1.1
2018-Jul-23 03:30N 09°16' W 079°55'0 0.5
2018-Jul-23 03:00N 09°16' W 079°55'0 0.5
2018-Jul-23 02:30N 09°17' W 079°55'0 0.5
2018-Jul-23 02:00N 09°17' W 079°55'1 1.3
2018-Jul-23 01:30N 09°17' W 079°55'2 4.2
2018-Jul-23 01:00N 09°20' W 079°55'3 6.3
2018-Jul-23 00:30N 09°23' W 079°56'0 0.2
2018-Jul-23 00:00N 09°23' W 079°56'0 0.2
2018-Jul-22 23:29N 09°23' W 079°55'0 0.0
2018-Jul-22 22:59N 09°23' W 079°55'0 0.1
2018-Jul-22 22:29N 09°23' W 079°56'0 0.0
2018-Jul-22 21:59N 09°23' W 079°56'0 0.0
2018-Jul-22 21:29N 09°23' W 079°55'0 0.1
2018-Jul-22 20:59N 09°23' W 079°56'0 0.0
2018-Jul-22 20:29N 09°23' W 079°56'0 0.0
2018-Jul-22 19:59N 09°23' W 079°55'0 0.0
2018-Jul-22 19:29N 09°23' W 079°55'0 0.0
2018-Jul-22 18:59N 09°23' W 079°55'0 0.1
2018-Jul-22 18:29N 09°23' W 079°56'0 0.0
2018-Jul-22 17:59N 09°23' W 079°56'0 0.0
2018-Jul-22 17:29N 09°23' W 079°56'0 0.0
2018-Jul-22 16:59N 09°23' W 079°56'0 0.0
2018-Jul-22 16:29N 09°23' W 079°56'0 0.0
2018-Jul-22 15:59N 09°23' W 079°56'0 0.0
2018-Jul-22 14:59N 09°23' W 079°56'0 0.1
2018-Jul-22 14:29N 09°23' W 079°56'0 0.1
2018-Jul-22 14:00N 09°23' W 079°56'0 0.9
2018-Jul-22 13:30N 09°22' W 079°56'1 1.2
2018-Jul-22 13:00N 09°22' W 079°55'3 6.4
2018-Jul-22 12:30N 09°26' W 079°55'2 3.1
2018-Jul-22 11:47N 09°26' W 079°57'0 0.1
2018-Jul-22 11:29N 09°26' W 079°57'0 0.0
2018-Jul-22 10:59N 09°26' W 079°57'0 0.0
2018-Jul-22 10:26N 09°26' W 079°57'0 0.0
2018-Jul-22 09:59N 09°26' W 079°57'0 0.0
2018-Jul-22 09:29N 09°26' W 079°57'0 0.0
2018-Jul-22 08:59N 09°26' W 079°57'0 0.0
2018-Jul-22 08:29N 09°26' W 079°57'0 0.0
2018-Jul-22 07:59N 09°26' W 079°57'0 0.0
2018-Jul-22 07:29N 09°26' W 079°57'0 0.1
2018-Jul-22 06:59N 09°26' W 079°57'0 0.0
2018-Jul-22 06:29N 09°26' W 079°57'0 0.0
2018-Jul-22 05:59N 09°26' W 079°57'0 0.0
2018-Jul-22 05:26N 09°26' W 079°57'0 0.1
2018-Jul-22 04:56N 09°26' W 079°57'0 0.0
2018-Jul-22 04:29N 09°26' W 079°57'0 0.0
2018-Jul-22 03:59N 09°26' W 079°57'0 0.0
2018-Jul-22 03:29N 09°26' W 079°57'0 0.0
2018-Jul-22 02:56N 09°26' W 079°57'0 0.0
2018-Jul-22 02:14N 09°26' W 079°57'0 0.0
2018-Jul-22 01:59N 09°26' W 079°57'0 0.0
2018-Jul-22 01:29N 09°26' W 079°57'0 0.0
2018-Jul-22 00:59N 09°26' W 079°57'0 0.0
2018-Jul-22 00:29N 09°26' W 079°57'0 0.0
2018-Jul-21 23:59N 09°26' W 079°57'0 0.0
2018-Jul-21 23:29N 09°26' W 079°57'0 0.0
2018-Jul-21 22:59N 09°26' W 079°57'0 0.0
2018-Jul-21 22:29N 09°26' W 079°57'0 0.0
2018-Jul-21 21:59N 09°26' W 079°57'0 0.0
2018-Jul-21 21:23N 09°26' W 079°57'0 0.1
2018-Jul-21 20:59N 09°26' W 079°57'0 0.1
2018-Jul-21 20:29N 09°26' W 079°57'0 0.0
2018-Jul-21 19:56N 09°26' W 079°57'0 0.0
2018-Jul-21 19:29N 09°26' W 079°57'0 0.0
2018-Jul-21 18:59N 09°26' W 079°57'0 0.0
2018-Jul-21 18:29N 09°26' W 079°57'0 0.0
2018-Jul-21 17:59N 09°26' W 079°57'0 0.0
2018-Jul-21 17:29N 09°26' W 079°57'0 0.0
2018-Jul-21 16:50N 09°26' W 079°57'0 0.0
2018-Jul-21 16:29N 09°26' W 079°57'0 0.0
2018-Jul-21 15:59N 09°26' W 079°57'0 0.0
2018-Jul-21 15:29N 09°26' W 079°57'0 0.0
2018-Jul-21 14:59N 09°26' W 079°57'0 0.0
2018-Jul-21 14:29N 09°26' W 079°57'0 0.0
2018-Jul-21 13:59N 09°26' W 079°57'0 0.1
2018-Jul-21 13:29N 09°26' W 079°57'0 0.1
2018-Jul-21 12:56N 09°26' W 079°57'0 0.0
2018-Jul-21 12:29N 09°26' W 079°57'0 0.0
2018-Jul-21 11:59N 09°26' W 079°57'0 0.1
2018-Jul-21 11:29N 09°26' W 079°57'0 0.0
2018-Jul-21 10:59N 09°26' W 079°57'0 0.0
2018-Jul-21 10:29N 09°26' W 079°57'0 0.1
2018-Jul-21 09:56N 09°26' W 079°58'0 0.1
2018-Jul-21 09:29N 09°26' W 079°57'0 0.0
2018-Jul-21 08:50N 09°26' W 079°57'0 0.0
2018-Jul-21 08:29N 09°26' W 079°58'0 0.0
2018-Jul-21 07:59N 09°26' W 079°58'0 0.0
2018-Jul-21 07:26N 09°26' W 079°57'0 0.0
2018-Jul-21 06:56N 09°26' W 079°57'0 0.0
2018-Jul-21 06:29N 09°26' W 079°57'0 0.0
2018-Jul-21 05:59N 09°26' W 079°57'0 0.0
2018-Jul-21 05:29N 09°26' W 079°57'0 0.0
2018-Jul-21 04:59N 09°26' W 079°57'0 0.0
2018-Jul-21 04:29N 09°26' W 079°57'0 0.0
2018-Jul-21 03:59N 09°26' W 079°57'0 0.0
2018-Jul-21 03:29N 09°26' W 079°57'0 0.0
2018-Jul-21 02:59N 09°26' W 079°57'0 0.0
2018-Jul-21 02:29N 09°26' W 079°57'0 0.0
2018-Jul-21 01:59N 09°26' W 079°57'0 0.0
2018-Jul-21 01:29N 09°26' W 079°57'0 0.0
2018-Jul-21 00:59N 09°26' W 079°57'0 0.1
2018-Jul-21 00:29N 09°26' W 079°57'0 0.1
2018-Jul-20 23:59N 09°26' W 079°57'0 0.1
2018-Jul-20 23:29N 09°26' W 079°58'0 0.0
2018-Jul-20 22:59N 09°26' W 079°58'0 0.1
2018-Jul-20 22:26N 09°26' W 079°58'0 0.0
2018-Jul-20 21:53N 09°26' W 079°58'0 0.1
2018-Jul-20 21:29N 09°26' W 079°58'0 0.0
2018-Jul-20 20:59N 09°26' W 079°58'0 0.4
2018-Jul-20 20:30N 09°26' W 079°57'3 5.1
2018-Jul-20 20:00N 09°27' W 079°55'611.1
2018-Jul-20 19:30N 09°32' W 079°53'  
2018-Jul-15 19:55N 38°44' W 074°60'614.8
2018-Jul-15 19:30N 38°49' W 075°04'612.7
2018-Jul-15 19:00N 38°56' W 075°06'713.5
2018-Jul-15 18:30N 39°02' W 075°09'712.9
2018-Jul-15 18:00N 39°08' W 075°13'612.3
2018-Jul-15 17:30N 39°13' W 075°18'510.8
2018-Jul-15 17:00N 39°17' W 075°22'510.3
2018-Jul-15 16:31N 39°21' W 075°26'510.2
2018-Jul-15 16:00N 39°25' W 075°31'5 9.4
2018-Jul-15 15:30N 39°29' W 075°34'5 9.7
2018-Jul-15 15:00N 39°34' W 075°33'4 8.6
2018-Jul-15 14:30N 39°38' W 075°35'510.6
2018-Jul-15 14:01N 39°42' W 075°31'611.0
2018-Jul-15 13:30N 39°47' W 075°28'2 4.5
2018-Jul-15 13:00N 39°48' W 075°25'0 0.1
2018-Jul-15 12:29N 39°48' W 075°25'0 0.0
2018-Jul-15 11:59N 39°48' W 075°25'0 0.0
2018-Jul-15 11:29N 39°48' W 075°25'0 0.0
2018-Jul-15 10:59N 39°48' W 075°25'0 0.1
2018-Jul-15 10:29N 39°48' W 075°25'0 0.5
2018-Jul-15 09:59N 39°48' W 075°25'0 0.0
2018-Jul-15 09:29N 39°48' W 075°25'0 0.0
2018-Jul-15 08:59N 39°48' W 075°25'0 0.0
2018-Jul-15 08:29N 39°48' W 075°25'0 0.0
2018-Jul-15 07:59N 39°48' W 075°25'0 0.0
2018-Jul-15 07:29N 39°48' W 075°25'0 0.0
2018-Jul-15 06:56N 39°48' W 075°25'0 0.0
2018-Jul-15 06:29N 39°48' W 075°25'0 0.0
2018-Jul-15 05:59N 39°48' W 075°25'0 0.0
2018-Jul-15 05:29N 39°48' W 075°25'0 0.0
2018-Jul-15 04:59N 39°48' W 075°25'0 0.0
2018-Jul-15 04:29N 39°48' W 075°25'0 0.0
2018-Jul-15 03:59N 39°48' W 075°25'0 0.0
2018-Jul-15 03:29N 39°48' W 075°25'0 0.0
2018-Jul-15 02:59N 39°48' W 075°25'0 0.0
2018-Jul-15 02:29N 39°48' W 075°25'0 0.0
2018-Jul-15 01:59N 39°48' W 075°25'0 0.0
2018-Jul-15 01:26N 39°48' W 075°25'0 0.0
2018-Jul-15 00:59N 39°48' W 075°25'0 0.0
2018-Jul-15 00:29N 39°48' W 075°25'0 0.0
2018-Jul-14 23:59N 39°48' W 075°25'0 0.0
2018-Jul-14 23:26N 39°48' W 075°25'0 0.0
2018-Jul-14 22:59N 39°48' W 075°25'0 0.0
2018-Jul-14 22:29N 39°48' W 075°25'0 0.0
2018-Jul-14 21:59N 39°48' W 075°25'0 0.0
2018-Jul-14 21:29N 39°48' W 075°25'0 0.0
2018-Jul-14 20:59N 39°48' W 075°25'0 0.0
2018-Jul-14 20:29N 39°48' W 075°25'0 0.0
2018-Jul-14 19:59N 39°48' W 075°25'0 0.0
2018-Jul-14 19:29N 39°48' W 075°25'0 0.0
2018-Jul-14 18:59N 39°48' W 075°25'0 0.0
2018-Jul-14 18:29N 39°48' W 075°25'0 0.0
2018-Jul-14 17:59N 39°48' W 075°25'0 0.0
2018-Jul-14 17:29N 39°48' W 075°25'0 0.0
2018-Jul-14 16:59N 39°48' W 075°25'0 0.0
2018-Jul-14 16:29N 39°48' W 075°25'0 0.0
2018-Jul-14 15:59N 39°48' W 075°25'0 0.0
2018-Jul-14 15:29N 39°48' W 075°25'0 0.0
2018-Jul-14 14:59N 39°48' W 075°25'0 0.0
2018-Jul-14 14:29N 39°48' W 075°25'0 0.0
2018-Jul-14 13:29N 39°48' W 075°25'0 0.0
2018-Jul-14 12:59N 39°48' W 075°25'0 0.0
2018-Jul-14 12:29N 39°48' W 075°25'0 0.0
2018-Jul-14 11:59N 39°48' W 075°25'0 0.0
2018-Jul-14 11:29N 39°48' W 075°25'0 0.0
2018-Jul-14 10:59N 39°48' W 075°25'0 0.0
2018-Jul-14 10:29N 39°48' W 075°25'0 0.0
2018-Jul-14 09:59N 39°48' W 075°25'0 0.0
2018-Jul-14 09:29N 39°48' W 075°25'0 0.0
2018-Jul-14 08:56N 39°48' W 075°25'0 0.0
2018-Jul-14 08:29N 39°48' W 075°25'0 0.0
2018-Jul-14 07:56N 39°48' W 075°25'0 0.0
2018-Jul-14 07:29N 39°48' W 075°25'0 0.0
2018-Jul-14 06:56N 39°48' W 075°25'0 0.0
2018-Jul-14 06:29N 39°48' W 075°25'0 0.0
2018-Jul-14 05:59N 39°48' W 075°25'0 0.0
2018-Jul-14 05:29N 39°48' W 075°25'0 0.0
2018-Jul-14 04:59N 39°48' W 075°25'0 0.0
2018-Jul-14 04:26N 39°48' W 075°25'0 0.0
2018-Jul-14 03:59N 39°48' W 075°25'0 0.0
2018-Jul-14 03:29N 39°48' W 075°25'0 0.0
2018-Jul-14 02:59N 39°48' W 075°25'0 0.0
2018-Jul-14 02:29N 39°48' W 075°25'0 0.0
2018-Jul-14 01:59N 39°48' W 075°25'0 0.0
2018-Jul-14 01:29N 39°48' W 075°25'0 0.0
2018-Jul-14 00:59N 39°48' W 075°25'0 0.0
2018-Jul-14 00:29N 39°48' W 075°25'0 0.0
2018-Jul-13 23:59N 39°48' W 075°25'0 0.0
2018-Jul-13 23:29N 39°48' W 075°25'0 0.0
2018-Jul-13 22:59N 39°48' W 075°25'0 0.0
2018-Jul-13 22:29N 39°48' W 075°25'0 0.0
2018-Jul-13 21:59N 39°48' W 075°25'0 0.0
2018-Jul-13 21:29N 39°48' W 075°25'0 0.0
2018-Jul-13 20:59N 39°48' W 075°25'0 0.0
2018-Jul-13 20:29N 39°48' W 075°25'0 0.0
2018-Jul-13 19:59N 39°48' W 075°25'0 0.0
2018-Jul-13 19:29N 39°48' W 075°25'0 0.0
2018-Jul-13 18:59N 39°48' W 075°25'0 0.0
2018-Jul-13 18:29N 39°48' W 075°25'0 0.0
2018-Jul-13 17:59N 39°48' W 075°25'0 0.0
2018-Jul-13 17:29N 39°48' W 075°25'0 0.0
2018-Jul-13 16:59N 39°48' W 075°25'0 0.0
2018-Jul-13 16:29N 39°48' W 075°25'0 0.0
2018-Jul-13 15:59N 39°48' W 075°25'0 0.0
2018-Jul-13 15:29N 39°48' W 075°25'0 0.0
2018-Jul-13 14:59N 39°48' W 075°25'0 0.0
2018-Jul-13 14:29N 39°48' W 075°25'0 0.0
2018-Jul-13 13:29N 39°48' W 075°25'0 0.0
2018-Jul-13 12:59N 39°48' W 075°25'0 0.0
2018-Jul-13 12:29N 39°48' W 075°25'0 0.0
2018-Jul-13 12:00N 39°48' W 075°25'1 2.5
2018-Jul-13 11:30N 39°47' W 075°27'3 6.0
2018-Jul-13 11:00N 39°45' W 075°29'3 6.8
2018-Jul-13 10:30N 39°42' W 075°31'5 9.9
2018-Jul-13 10:00N 39°38' W 075°34'510.7
2018-Jul-13 09:30N 39°33' W 075°32'611.1
2018-Jul-13 09:00N 39°27' W 075°34'611.2
2018-Jul-13 08:30N 39°23' W 075°29'611.1
2018-Jul-13 08:00N 39°19' W 075°24'  
Track history (hours):
 
Tides and Currents Weather Stations Pressure Air Temp Water Temp Dewpoint Dewpoint Depression Visibility Wind Speed Wind Dir Waves Ship Positions

Star Fortune

Last reported at 2018-Jul-23 07:54 UTC. Time now 2018-Jul-23 11:54 UTC.
Position N 09°13' W 079°56'.

Length 289 m; draft 7.7 m.

Type: Cargo ship. MMSI: 353223000.

Date/timePositionNaut miles runAvg speedWind from/ knotsBaromVisibWave heightAir tempDewpointWater temp
2018-Jul-23 07:54N 09°13' W 079°56'0 0.0
2018-Jul-23 06:33N 09°13' W 079°56'0 0.0
2018-Jul-23 06:21N 09°13' W 079°56'0 0.0
2018-Jul-23 04:51N 09°13' W 079°56'1 2.0
2018-Jul-23 04:30N 09°14' W 079°56'2 3.5
2018-Jul-23 04:00N 09°16' W 079°55'1 1.1
2018-Jul-23 03:30N 09°16' W 079°55'0 0.5
2018-Jul-23 03:00N 09°16' W 079°55'0 0.5
2018-Jul-23 02:30N 09°17' W 079°55'0 0.5
2018-Jul-23 02:00N 09°17' W 079°55'1 1.3
2018-Jul-23 01:30N 09°17' W 079°55'2 4.2
2018-Jul-23 01:00N 09°20' W 079°55'3 6.3
2018-Jul-23 00:30N 09°23' W 079°56'0 0.2
2018-Jul-23 00:00N 09°23' W 079°56'0 0.2
2018-Jul-22 23:29N 09°23' W 079°55'0 0.0
2018-Jul-22 22:59N 09°23' W 079°55'0 0.1
2018-Jul-22 22:29N 09°23' W 079°56'0 0.0
2018-Jul-22 21:59N 09°23' W 079°56'0 0.0
2018-Jul-22 21:29N 09°23' W 079°55'0 0.1
2018-Jul-22 20:59N 09°23' W 079°56'0 0.0
2018-Jul-22 20:29N 09°23' W 079°56'0 0.0
2018-Jul-22 19:59N 09°23' W 079°55'0 0.0
2018-Jul-22 19:29N 09°23' W 079°55'0 0.0
2018-Jul-22 18:59N 09°23' W 079°55'0 0.1
2018-Jul-22 18:29N 09°23' W 079°56'0 0.0
2018-Jul-22 17:59N 09°23' W 079°56'0 0.0
2018-Jul-22 17:29N 09°23' W 079°56'0 0.0
2018-Jul-22 16:59N 09°23' W 079°56'0 0.0
2018-Jul-22 16:29N 09°23' W 079°56'0 0.0
2018-Jul-22 15:59N 09°23' W 079°56'0 0.0
2018-Jul-22 14:59N 09°23' W 079°56'0 0.1
2018-Jul-22 14:29N 09°23' W 079°56'0 0.1
2018-Jul-22 14:00N 09°23' W 079°56'0 0.9
2018-Jul-22 13:30N 09°22' W 079°56'1 1.2
2018-Jul-22 13:00N 09°22' W 079°55'3 6.4
2018-Jul-22 12:30N 09°26' W 079°55'2 3.1
2018-Jul-22 11:47N 09°26' W 079°57'0 0.1
2018-Jul-22 11:29N 09°26' W 079°57'0 0.0
2018-Jul-22 10:59N 09°26' W 079°57'0 0.0
2018-Jul-22 10:26N 09°26' W 079°57'0 0.0
2018-Jul-22 09:59N 09°26' W 079°57'0 0.0
2018-Jul-22 09:29N 09°26' W 079°57'0 0.0
2018-Jul-22 08:59N 09°26' W 079°57'0 0.0
2018-Jul-22 08:29N 09°26' W 079°57'0 0.0
2018-Jul-22 07:59N 09°26' W 079°57'0 0.0
2018-Jul-22 07:29N 09°26' W 079°57'0 0.1
2018-Jul-22 06:59N 09°26' W 079°57'0 0.0
2018-Jul-22 06:29N 09°26' W 079°57'0 0.0
2018-Jul-22 05:59N 09°26' W 079°57'0 0.0
2018-Jul-22 05:26N 09°26' W 079°57'0 0.1
2018-Jul-22 04:56N 09°26' W 079°57'0 0.0
2018-Jul-22 04:29N 09°26' W 079°57'0 0.0
2018-Jul-22 03:59N 09°26' W 079°57'0 0.0
2018-Jul-22 03:29N 09°26' W 079°57'0 0.0
2018-Jul-22 02:56N 09°26' W 079°57'0 0.0
2018-Jul-22 02:14N 09°26' W 079°57'0 0.0
2018-Jul-22 01:59N 09°26' W 079°57'0 0.0
2018-Jul-22 01:29N 09°26' W 079°57'0 0.0
2018-Jul-22 00:59N 09°26' W 079°57'0 0.0
2018-Jul-22 00:29N 09°26' W 079°57'0 0.0
2018-Jul-21 23:59N 09°26' W 079°57'0 0.0
2018-Jul-21 23:29N 09°26' W 079°57'0 0.0
2018-Jul-21 22:59N 09°26' W 079°57'0 0.0
2018-Jul-21 22:29N 09°26' W 079°57'0 0.0
2018-Jul-21 21:59N 09°26' W 079°57'0 0.0
2018-Jul-21 21:23N 09°26' W 079°57'0 0.1
2018-Jul-21 20:59N 09°26' W 079°57'0 0.1
2018-Jul-21 20:29N 09°26' W 079°57'0 0.0
2018-Jul-21 19:56N 09°26' W 079°57'0 0.0
2018-Jul-21 19:29N 09°26' W 079°57'0 0.0
2018-Jul-21 18:59N 09°26' W 079°57'0 0.0
2018-Jul-21 18:29N 09°26' W 079°57'0 0.0
2018-Jul-21 17:59N 09°26' W 079°57'0 0.0
2018-Jul-21 17:29N 09°26' W 079°57'0 0.0
2018-Jul-21 16:50N 09°26' W 079°57'0 0.0
2018-Jul-21 16:29N 09°26' W 079°57'0 0.0
2018-Jul-21 15:59N 09°26' W 079°57'0 0.0
2018-Jul-21 15:29N 09°26' W 079°57'0 0.0
2018-Jul-21 14:59N 09°26' W 079°57'0 0.0
2018-Jul-21 14:29N 09°26' W 079°57'0 0.0
2018-Jul-21 13:59N 09°26' W 079°57'0 0.1
2018-Jul-21 13:29N 09°26' W 079°57'0 0.1
2018-Jul-21 12:56N 09°26' W 079°57'0 0.0
2018-Jul-21 12:29N 09°26' W 079°57'0 0.0
2018-Jul-21 11:59N 09°26' W 079°57'0 0.1
2018-Jul-21 11:29N 09°26' W 079°57'0 0.0
2018-Jul-21 10:59N 09°26' W 079°57'0 0.0
2018-Jul-21 10:29N 09°26' W 079°57'0 0.1
2018-Jul-21 09:56N 09°26' W 079°58'0 0.1
2018-Jul-21 09:29N 09°26' W 079°57'0 0.0
2018-Jul-21 08:50N 09°26' W 079°57'0 0.0
2018-Jul-21 08:29N 09°26' W 079°58'0 0.0
2018-Jul-21 07:59N 09°26' W 079°58'0 0.0
2018-Jul-21 07:26N 09°26' W 079°57'0 0.0
2018-Jul-21 06:56N 09°26' W 079°57'0 0.0
2018-Jul-21 06:29N 09°26' W 079°57'0 0.0
2018-Jul-21 05:59N 09°26' W 079°57'0 0.0
2018-Jul-21 05:29N 09°26' W 079°57'0 0.0
2018-Jul-21 04:59N 09°26' W 079°57'0 0.0
2018-Jul-21 04:29N 09°26' W 079°57'0 0.0
2018-Jul-21 03:59N 09°26' W 079°57'0 0.0
2018-Jul-21 03:29N 09°26' W 079°57'0 0.0
2018-Jul-21 02:59N 09°26' W 079°57'0 0.0
2018-Jul-21 02:29N 09°26' W 079°57'0 0.0
2018-Jul-21 01:59N 09°26' W 079°57'0 0.0
2018-Jul-21 01:29N 09°26' W 079°57'0 0.0
2018-Jul-21 00:59N 09°26' W 079°57'0 0.1
2018-Jul-21 00:29N 09°26' W 079°57'0 0.1
2018-Jul-20 23:59N 09°26' W 079°57'0 0.1
2018-Jul-20 23:29N 09°26' W 079°58'0 0.0
2018-Jul-20 22:59N 09°26' W 079°58'0 0.1
2018-Jul-20 22:26N 09°26' W 079°58'0 0.0
2018-Jul-20 21:53N 09°26' W 079°58'0 0.1
2018-Jul-20 21:29N 09°26' W 079°58'0 0.0
2018-Jul-20 20:59N 09°26' W 079°58'0 0.4
2018-Jul-20 20:30N 09°26' W 079°57'3 5.1
2018-Jul-20 20:00N 09°27' W 079°55'611.1
2018-Jul-20 19:30N 09°32' W 079°53'  
2018-Jul-15 19:55N 38°44' W 074°60'614.8
2018-Jul-15 19:30N 38°49' W 075°04'612.7
2018-Jul-15 19:00N 38°56' W 075°06'713.5
2018-Jul-15 18:30N 39°02' W 075°09'712.9
2018-Jul-15 18:00N 39°08' W 075°13'612.3
2018-Jul-15 17:30N 39°13' W 075°18'510.8
2018-Jul-15 17:00N 39°17' W 075°22'510.3
2018-Jul-15 16:31N 39°21' W 075°26'510.2
2018-Jul-15 16:00N 39°25' W 075°31'5 9.4
2018-Jul-15 15:30N 39°29' W 075°34'5 9.7
2018-Jul-15 15:00N 39°34' W 075°33'4 8.6
2018-Jul-15 14:30N 39°38' W 075°35'510.6
2018-Jul-15 14:01N 39°42' W 075°31'611.0
2018-Jul-15 13:30N 39°47' W 075°28'2 4.5
2018-Jul-15 13:00N 39°48' W 075°25'0 0.1
2018-Jul-15 12:29N 39°48' W 075°25'0 0.0
2018-Jul-15 11:59N 39°48' W 075°25'0 0.0
2018-Jul-15 11:29N 39°48' W 075°25'0 0.0
2018-Jul-15 10:59N 39°48' W 075°25'0 0.1
2018-Jul-15 10:29N 39°48' W 075°25'0 0.5
2018-Jul-15 09:59N 39°48' W 075°25'0 0.0
2018-Jul-15 09:29N 39°48' W 075°25'0 0.0
2018-Jul-15 08:59N 39°48' W 075°25'0 0.0
2018-Jul-15 08:29N 39°48' W 075°25'0 0.0
2018-Jul-15 07:59N 39°48' W 075°25'0 0.0
2018-Jul-15 07:29N 39°48' W 075°25'0 0.0
2018-Jul-15 06:56N 39°48' W 075°25'0 0.0
2018-Jul-15 06:29N 39°48' W 075°25'0 0.0
2018-Jul-15 05:59N 39°48' W 075°25'0 0.0
2018-Jul-15 05:29N 39°48' W 075°25'0 0.0
2018-Jul-15 04:59N 39°48' W 075°25'0 0.0
2018-Jul-15 04:29N 39°48' W 075°25'0 0.0
2018-Jul-15 03:59N 39°48' W 075°25'0 0.0
2018-Jul-15 03:29N 39°48' W 075°25'0 0.0
2018-Jul-15 02:59N 39°48' W 075°25'0 0.0
2018-Jul-15 02:29N 39°48' W 075°25'0 0.0
2018-Jul-15 01:59N 39°48' W 075°25'0 0.0
2018-Jul-15 01:26N 39°48' W 075°25'0 0.0
2018-Jul-15 00:59N 39°48' W 075°25'0 0.0
2018-Jul-15 00:29N 39°48' W 075°25'0 0.0
2018-Jul-14 23:59N 39°48' W 075°25'0 0.0
2018-Jul-14 23:26N 39°48' W 075°25'0 0.0
2018-Jul-14 22:59N 39°48' W 075°25'0 0.0
2018-Jul-14 22:29N 39°48' W 075°25'0 0.0
2018-Jul-14 21:59N 39°48' W 075°25'0 0.0
2018-Jul-14 21:29N 39°48' W 075°25'0 0.0
2018-Jul-14 20:59N 39°48' W 075°25'0 0.0
2018-Jul-14 20:29N 39°48' W 075°25'0 0.0
2018-Jul-14 19:59N 39°48' W 075°25'0 0.0
2018-Jul-14 19:29N 39°48' W 075°25'0 0.0
2018-Jul-14 18:59N 39°48' W 075°25'0 0.0
2018-Jul-14 18:29N 39°48' W 075°25'0 0.0
2018-Jul-14 17:59N 39°48' W 075°25'0 0.0
2018-Jul-14 17:29N 39°48' W 075°25'0 0.0
2018-Jul-14 16:59N 39°48' W 075°25'0 0.0
2018-Jul-14 16:29N 39°48' W 075°25'0 0.0
2018-Jul-14 15:59N 39°48' W 075°25'0 0.0
2018-Jul-14 15:29N 39°48' W 075°25'0 0.0
2018-Jul-14 14:59N 39°48' W 075°25'0 0.0
2018-Jul-14 14:29N 39°48' W 075°25'0 0.0
2018-Jul-14 13:29N 39°48' W 075°25'0 0.0
2018-Jul-14 12:59N 39°48' W 075°25'0 0.0
2018-Jul-14 12:29N 39°48' W 075°25'0 0.0
2018-Jul-14 11:59N 39°48' W 075°25'0 0.0
2018-Jul-14 11:29N 39°48' W 075°25'0 0.0
2018-Jul-14 10:59N 39°48' W 075°25'0 0.0
2018-Jul-14 10:29N 39°48' W 075°25'0 0.0
2018-Jul-14 09:59N 39°48' W 075°25'0 0.0
2018-Jul-14 09:29N 39°48' W 075°25'0 0.0
2018-Jul-14 08:56N 39°48' W 075°25'0 0.0
2018-Jul-14 08:29N 39°48' W 075°25'0 0.0
2018-Jul-14 07:56N 39°48' W 075°25'0 0.0
2018-Jul-14 07:29N 39°48' W 075°25'0 0.0
2018-Jul-14 06:56N 39°48' W 075°25'0 0.0
2018-Jul-14 06:29N 39°48' W 075°25'0 0.0
2018-Jul-14 05:59N 39°48' W 075°25'0 0.0
2018-Jul-14 05:29N 39°48' W 075°25'0 0.0
2018-Jul-14 04:59N 39°48' W 075°25'0 0.0
2018-Jul-14 04:26N 39°48' W 075°25'0 0.0
2018-Jul-14 03:59N 39°48' W 075°25'0 0.0
2018-Jul-14 03:29N 39°48' W 075°25'0 0.0
2018-Jul-14 02:59N 39°48' W 075°25'0 0.0
2018-Jul-14 02:29N 39°48' W 075°25'0 0.0
2018-Jul-14 01:59N 39°48' W 075°25'0 0.0
2018-Jul-14 01:29N 39°48' W 075°25'0 0.0
2018-Jul-14 00:59N 39°48' W 075°25'0 0.0
2018-Jul-14 00:29N 39°48' W 075°25'0 0.0
2018-Jul-13 23:59N 39°48' W 075°25'0 0.0
2018-Jul-13 23:29N 39°48' W 075°25'0 0.0
2018-Jul-13 22:59N 39°48' W 075°25'0 0.0
2018-Jul-13 22:29N 39°48' W 075°25'0 0.0
2018-Jul-13 21:59N 39°48' W 075°25'0 0.0
2018-Jul-13 21:29N 39°48' W 075°25'0 0.0
2018-Jul-13 20:59N 39°48' W 075°25'0 0.0
2018-Jul-13 20:29N 39°48' W 075°25'0 0.0
2018-Jul-13 19:59N 39°48' W 075°25'0 0.0
2018-Jul-13 19:29N 39°48' W 075°25'0 0.0
2018-Jul-13 18:59N 39°48' W 075°25'0 0.0
2018-Jul-13 18:29N 39°48' W 075°25'0 0.0
2018-Jul-13 17:59N 39°48' W 075°25'0 0.0
2018-Jul-13 17:29N 39°48' W 075°25'0 0.0
2018-Jul-13 16:59N 39°48' W 075°25'0 0.0
2018-Jul-13 16:29N 39°48' W 075°25'0 0.0
2018-Jul-13 15:59N 39°48' W 075°25'0 0.0
2018-Jul-13 15:29N 39°48' W 075°25'0 0.0
2018-Jul-13 14:59N 39°48' W 075°25'0 0.0
2018-Jul-13 14:29N 39°48' W 075°25'0 0.0
2018-Jul-13 13:29N 39°48' W 075°25'0 0.0
2018-Jul-13 12:59N 39°48' W 075°25'0 0.0
2018-Jul-13 12:29N 39°48' W 075°25'0 0.0
2018-Jul-13 12:00N 39°48' W 075°25'1 2.5
2018-Jul-13 11:30N 39°47' W 075°27'3 6.0
2018-Jul-13 11:00N 39°45' W 075°29'3 6.8
2018-Jul-13 10:30N 39°42' W 075°31'5 9.9
2018-Jul-13 10:00N 39°38' W 075°34'510.7
2018-Jul-13 09:30N 39°33' W 075°32'611.1
2018-Jul-13 09:00N 39°27' W 075°34'611.2
2018-Jul-13 08:30N 39°23' W 075°29'611.1
2018-Jul-13 08:00N 39°19' W 075°24'  

Dump ship's entire track history